Linden, Texas
Current Conditions -  °F | °C
As of 10:15 AM on Wednesday 22 Oct 2014 (Local Time) from KASL Reporting Station
Clear Clear  
Wind Chill: 73°   Ceiling: Unl
Heat Index: 73°   Visibility: 10mi
Dew Point: 58°   Wind: 3mph
Humidity: 59%   Direction: 90°E
Pressure: 30.2"   Gusts: NA
Location:  33.01°N, 94.37°W
Report Text: KASL 221515Z AUTO 09003KT 10SM CLR 23/15 A3020 RMK AO1 T02300147
Loading
Personal Weather Stations






























Interactive Weather Map
Tropical Storm Tracking
New forecast layout! Learn more

10-Day Weather Forecast

Advertisements
Track Severe Weather on mobile